Løbsresumé (Bane: Brno | Sæson: 19 | Løb: 6 | Gruppe: Elite)

Sæson:  Løb:

Vælg en anden gruppe:

Plac Fremdrift Dæk Nat Managernavn Løbstid Omgange Pitstop Bedste omgang Gennemsnitlig fart Bedste pit-tid
01. +2 +2 Michelini   Vladimir Islentiev2 1h45:26.322 57 1 1:49.615 175.27km/h 9.787s
02. +2 +2 Michelini   Rui Fonseca + 24.151 57 1 1:49.882 174.60km/h 15.712s
03. +25 +25 Dunnolop   Andy Zavarin + 30.125 57 1 1:49.583 174.44km/h 14.888s
04. +27 +27 Dunnolop   Leandro Sereno2 + 38.842 57 1 1:49.638 174.20km/h 10.058s
05. +12 +12 Michelini   Laila Britāle + 46.158 57 1 1:50.207 174.00km/h 12.684s
06. +24 +24 Badyear   Lee Ifans + 50.476 57 1 1:49.568 173.88km/h 16.157s
07. +4 +4 Michelini   Nuno Vicente + 1:03.782 57 1 1:50.334 173.52km/h 11.398s
08. +6 +6 Michelini   Denis Grahov + 1:05.714 57 1 1:50.286 173.47km/h 13.517s
09. -8 -8 Michelini   Toygun Senler1 + 1:09.594 57 2 1:42.026 173.36km/h 11.108s
10. -4 -4 Michelini   João Monteiro + 1:20.587 57 2 1:50.083 173.06km/h 12.035s
11. -3 -3 Michelini   Jari Aareskoski3 + 1:21.409 57 2 1:44.979 173.04km/h 8.929s
12. +1 +1 Michelini   Martynas Molneris + 1:35.717 57 2 1:47.662 172.66km/h 14.911s
13. -8 -8 Michelini   Zdenek Hladik + 1:35.861 57 2 1:43.799 172.65km/h 15.077s
14. +2 +2 Badyear   Toni Söyrinki + 1:41.547 57 3 1:48.909 172.50km/h 14.175s
15. -3 -3 Michelini   Marek Marchewka + 1:46.099 57 1 1:51.002 172.38km/h 14.423s
16. +3 +3 Michelini   Wagner Souza + 1:49.290 57 1 1:51.004 172.29km/h 12.205s
17. +16 +16 Dunnolop   Oli Jais + 2:04.163 56 2 1:50.717 171.89km/h 12.234s
18. -9 -9 Michelini   Joan Centellas + 2:04.265 56 2 1:45.735 171.89km/h 10.716s
19. -9 -9 Michelini   Jan Zaluski + 2:06.015 56 2 1:46.215 171.84km/h 15.514s
20. -13 -13 Michelini   Aleksej Sutkin + 2:09.187 56 2 1:44.371 171.76km/h 15.038s
21. Ingen forandring ±0 Michelini   Vitor Novo + 2:23.871 56 2 1:51.008 171.37km/h 17.015s
22. Ingen forandring ±0 Michelini   Rimantas Sagatas + 2:33.278 56 2 1:51.132 171.12km/h 14.316s
23. +3 +3 Dunnolop   Daniele Ambroggi + 2:43.652 56 1 1:50.706 170.85km/h 14.539s
24. +1 +1 Dunnolop   Andrius Talandzevicius + 2:49.973 56 1 1:51.956 170.68km/h 19.353s
25. -5 -5 Michelini   Tomasz Kaminski + 2:55.912 56 2 1:50.871 170.53km/h 13.570s
26. -24 -24 Michelini   Edvinas Pranculevicius + 3:03.861 56 2 1:45.558 170.32km/h 11.652s
27. -4 -4 Badyear   Michael Monaco + 3:10.985 56 2 1:51.881 170.13km/h 14.244s
28. -13 -13 Michelini   Renato Svaiter + 3:19.759 56 3 1:49.019 169.90km/h 15.924s
29. Ingen forandring ±0 Dunnolop   Gabriel Toma + 4:01.974 55 2 1:52.143 168.81km/h 16.536s
30. +2 +2 Dunnolop   Kostas Farsalinos + 4:47.567 55 1 1:54.205 167.65km/h 16.521s
31. -4 -4 Dunnolop   Michalis Marolachakis + 5:22.796 55 2 1:53.733 166.76km/h 14.620s
32. -14 -14 Michelini   Filipe Miguel + 5:28.959 54 2 1:54.920 166.60km/h 15.608s
33. +1 +1 Pipirelli   Mikko Heikkinen + 6:50.321 54 3 1:55.158 164.59km/h 15.007s
34. +2 +2 Badyear   Michał Smiatacz + 7:20.875 53 4 1:54.297 163.85km/h 18.923s
35. -11 -11 Michelini   Lucas Secundo Abreu + 7:24.607 53 1 1:51.958 163.76km/h 27.071s
36. +2 +2 Michelini   Martin Rosina + 7:27.075 53 1 1:56.233 163.70km/h 14.691s
37. Ingen forandring ±0 Pipirelli   Philipp Hartmann + 7:38.056 53 2 1:56.967 163.43km/h 14.689s
38. +1 +1 Pipirelli   Martynas Atkočius + 8:45.843 53 3 1:57.143 161.82km/h 15.942s
39. -4 -4 Pipirelli   Craig Templeman + 9:06.458 53 2 1:56.763 161.33km/h 19.952s